Bologna, Italy

8:27 PM CET on December 28, 2014 (GMT +0100)
Borgo Panigale | Change Station
CLOSE
Current Station
Airport
Location: Bologna,
Elevation: 121 ft
Nearby Weather Stations
Active Advisory: Wind

Elev 121 ft 44.53 °N, 11.30 °E | Updated 7 minutes ago

Scattered Clouds
Scattered Clouds
37 °F
Feels Like 35 °F
N
4
Wind Variable Wind from NW

Today
High -- | Low -- °F
--% Chance of Precip.
Yesterday
High -- | Low -- °F
Precip. -- in
7:50 AM 4:41 PM
Waxing Crescent, 50% visible
Pressure 29.89 in
Visibility 5.0 miles
Clouds Scattered Clouds 4000 ft
Scattered Clouds 6000 ft
Windchill 35 °F
Dew Point 34 °F
Humidity 87%
Rainfall 0.00 in
Snow Depth Not available.
UV 0 out of 12
Pollen Not available.
Air Quality Not available.
Flu Activity Not available.
METAR LIPE 281920Z 31003KT 8000 SCT040 SCT060 03/01 Q1012

More Conditions Fewer Conditions

Pressure 29.89 in
Visibility 5.0 miles
Clouds Scattered Clouds 4000 ft
Scattered Clouds 6000 ft
Windchill 35 °F
Dew Point 34 °F
Humidity 87%
Rainfall 0.00 in
Snow Depth Not available.
UV 0 out of 12
Pollen Not available.
Air Quality Not available.
Flu Activity Not available.
METAR LIPE 281920Z 31003KT 8000 SCT040 SCT060 03/01 Q1012

More Conditions Fewer Conditions

10-Day Weather Forecast

Almanac

Astronomy

Dec. 28, 2014 Rise Set
Actual Time
Civil Twilight
Nautical Twilight
Astronomical Twilight
Moon
Length of Visible Light
Length of Day
Tomorrow will be .
, % of the Moon is Illuminated

Today's Extremes

Country Highs Country Lows

Community

WunderPhotos

Upload Photos

1,781,400 photos uploaded!

WunderBlogs® & News

Nearby

Air Quality

  Air Quality AQ Index Pollutant
Not available.

Snow Depth

Station Depth Elevation

Earthquake Activity

City Distance Mag. Time & Date
Minimum magnitude displayed is 2.5.

Coastal Water Temperatures

Place Temperature

Nearby Weather Stations